< < Back
Terminal Aerodrome Forecast


Current Version              Previous Versions:   1  2  3  4  5  6  7  8  9  

Terminal Aerodrome Forecast

236
FTUS42 KMLB 210300 AAC
TAFMCO
TAF AMD
KMCO 210303Z 2103/2124 VRB03KT P6SM SCT250
     FM211400 25005KT P6SM FEW040 FEW250
     FM212200 12004KT P6SM SCT040=



Latest METAR

296
SAUS70 KWBC 211200 RRA
MTRMCO
METAR KMCO 211153Z 00000KT 10SM SCT280 27/25 A3012 RMK AO2 SLP198
T02720250 10272 20244 53013


USA.gov is the U.S. government's official web portal to all federal, state and local government web resources and services.